Etusivu
METAR-TAF:

METAR-TAF

Lentoasemat :

Lafayette, Indiana, Yhdysvallat

Leveyspiiri: 40-24-45N, Pituuspiiri: 086-56-51W, korkeus merenpinnasta: 184 m

Tämänhetkinen sää

Tämä raportti tehtiin 29 minuuttia sitten, kello 16.54 UTC
Tuuli 11 kn etelästä/lounaasta puuskistuen 17 kn:hen
Lämpötila 5°C
Kosteus 38%
Ilmanpaine 1027 hPa
Näkyvyys: 16.1 km
selkeää

METAR: KLAF 221654Z 21011G17KT 10SM CLR 05/M08 A3032 RMK AO2 SLP272 T00501078

Aika: 12:23 (17:23 UTC)

Sääennuste

Tämä raportti tehtiin 6 tuntia ja 0 minuuttia sitten, kello 11.23 UTC
Ennuste voimassa 22. päivästä klo 12 UTC - 23. päivään klo 12 UTC
Tuuli 7 kn lounaasta
Näkyvyys: 10 km
selkeää
From 23. päivästä klo 0100 UTC
Tuuli 7 kn etelästä
Näkyvyys: 10 km
Muutamia pilviä 25000 ft:n korkeudessa

TAF: KLAF 221123Z 2212/2312 22007KT P6SM SKC FM230100 19007KT P6SM FEW250 AMD LTD TO CLD VIS AND WIND TIL 221400

Säähavainnot ja -ennusteet yli 4000 lentoasemalta (METAR- ja TAF-raportit).

Käytössä olevat sääasemat on merkitty karttaan keltaisilla ja punaisilla pisteillä.

Aseta hiiri pisteen päälle nähdäksesi sääaseman nimen.

Klikkaa sitten nähdäksesi säähavainnot ja -ennusteet.

Kartan vaihtaminen: klikkaa mustalla rastilla varustettuja vihreitä pisteitä, niin voit zoomata sisään; viivalla varustettua vihreää pistettä, niin voit zoomata ulos tai vihreitä nuolia, niin pääset viereisille kartoille.


METAR-TAF: